sensor_id;sensor_type;location;lat;lon;timestamp;temperature;humidity
18950;DHT22;9608;49.288;8.130;2023-03-04T00:02:14;3.60;99.90
18950;DHT22;9608;49.288;8.130;2023-03-04T00:04:42;3.50;99.90
18950;DHT22;9608;49.288;8.130;2023-03-04T00:07:09;3.50;99.90
18950;DHT22;9608;49.288;8.130;2023-03-04T00:09:37;3.50;99.90
18950;DHT22;9608;49.288;8.130;2023-03-04T00:12:04;3.40;99.90
18950;DHT22;9608;49.288;8.130;2023-03-04T00:14:33;3.40;99.90
18950;DHT22;9608;49.288;8.130;2023-03-04T00:16:59;3.50;99.90
18950;DHT22;9608;49.288;8.130;2023-03-04T00:19:28;3.50;99.90
18950;DHT22;9608;49.288;8.130;2023-03-04T00:22:04;3.50;99.90
18950;DHT22;9608;49.288;8.130;2023-03-04T00:24:31;3.50;99.90
18950;DHT22;9608;49.288;8.130;2023-03-04T00:26:58;3.40;99.90
18950;DHT22;9608;49.288;8.130;2023-03-04T00:29:24;3.30;99.90
18950;DHT22;9608;49.288;8.130;2023-03-04T00:31:51;3.30;99.90
18950;DHT22;9608;49.288;8.130;2023-03-04T00:34:18;3.30;99.90
18950;DHT22;9608;49.288;8.130;2023-03-04T00:36:45;3.30;99.90
18950;DHT22;9608;49.288;8.130;2023-03-04T00:39:13;3.30;99.90
18950;DHT22;9608;49.288;8.130;2023-03-04T00:41:40;3.20;99.90
18950;DHT22;9608;49.288;8.130;2023-03-04T00:44:07;3.10;99.90
18950;DHT22;9608;49.288;8.130;2023-03-04T00:46:34;3.10;99.90
18950;DHT22;9608;49.288;8.130;2023-03-04T00:49:01;3.10;99.90
18950;DHT22;9608;49.288;8.130;2023-03-04T00:51:27;3.10;99.90
18950;DHT22;9608;49.288;8.130;2023-03-04T00:53:54;3.00;99.90
18950;DHT22;9608;49.288;8.130;2023-03-04T00:56:22;2.90;99.90
18950;DHT22;9608;49.288;8.130;2023-03-04T00:58:49;2.90;99.90
18950;DHT22;9608;49.288;8.130;2023-03-04T01:01:16;2.90;99.90
18950;DHT22;9608;49.288;8.130;2023-03-04T01:03:43;2.80;99.90
18950;DHT22;9608;49.288;8.130;2023-03-04T01:06:10;2.80;99.90
18950;DHT22;9608;49.288;8.130;2023-03-04T01:08:37;2.80;99.90
18950;DHT22;9608;49.288;8.130;2023-03-04T01:11:04;2.80;99.90
18950;DHT22;9608;49.288;8.130;2023-03-04T01:13:32;2.80;99.90
18950;DHT22;9608;49.288;8.130;2023-03-04T01:15:59;2.70;99.90
18950;DHT22;9608;49.288;8.130;2023-03-04T01:18:28;2.80;99.90
18950;DHT22;9608;49.288;8.130;2023-03-04T01:20:54;2.80;99.90
18950;DHT22;9608;49.288;8.130;2023-03-04T01:23:21;2.80;99.90
18950;DHT22;9608;49.288;8.130;2023-03-04T01:25:48;2.70;99.90
18950;DHT22;9608;49.288;8.130;2023-03-04T01:28:14;2.80;99.90
18950;DHT22;9608;49.288;8.130;2023-03-04T01:30:42;2.80;99.90
18950;DHT22;9608;49.288;8.130;2023-03-04T01:33:09;2.80;99.90
18950;DHT22;9608;49.288;8.130;2023-03-04T01:35:36;2.80;99.90
18950;DHT22;9608;49.288;8.130;2023-03-04T01:38:02;2.80;99.90
18950;DHT22;9608;49.288;8.130;2023-03-04T01:40:30;2.80;99.90
18950;DHT22;9608;49.288;8.130;2023-03-04T01:42:56;2.80;99.90
18950;DHT22;9608;49.288;8.130;2023-03-04T01:45:23;2.80;99.90
18950;DHT22;9608;49.288;8.130;2023-03-04T01:47:52;2.80;99.90
18950;DHT22;9608;49.288;8.130;2023-03-04T01:50:22;2.80;99.90
18950;DHT22;9608;49.288;8.130;2023-03-04T01:52:52;2.80;99.90
18950;DHT22;9608;49.288;8.130;2023-03-04T01:55:21;2.80;99.90
18950;DHT22;9608;49.288;8.130;2023-03-04T01:57:49;2.70;99.90
18950;DHT22;9608;49.288;8.130;2023-03-04T02:00:20;2.70;99.90
18950;DHT22;9608;49.288;8.130;2023-03-04T02:02:50;2.60;99.90
18950;DHT22;9608;49.288;8.130;2023-03-04T02:05:20;2.60;99.90
18950;DHT22;9608;49.288;8.130;2023-03-04T02:07:47;2.60;99.90
18950;DHT22;9608;49.288;8.130;2023-03-04T02:10:14;2.70;99.90
18950;DHT22;9608;49.288;8.130;2023-03-04T02:12:41;2.60;99.90
18950;DHT22;9608;49.288;8.130;2023-03-04T02:15:09;2.70;99.90
18950;DHT22;9608;49.288;8.130;2023-03-04T02:17:36;2.70;99.90
18950;DHT22;9608;49.288;8.130;2023-03-04T02:20:11;2.70;99.90
18950;DHT22;9608;49.288;8.130;2023-03-04T02:22:46;2.70;99.90
18950;DHT22;9608;49.288;8.130;2023-03-04T02:25:19;2.70;99.90
18950;DHT22;9608;49.288;8.130;2023-03-04T02:27:49;2.70;99.90
18950;DHT22;9608;49.288;8.130;2023-03-04T02:30:19;2.60;99.90
18950;DHT22;9608;49.288;8.130;2023-03-04T02:32:46;2.60;99.90
18950;DHT22;9608;49.288;8.130;2023-03-04T02:35:15;2.60;99.90
18950;DHT22;9608;49.288;8.130;2023-03-04T02:37:42;2.60;99.90
18950;DHT22;9608;49.288;8.130;2023-03-04T02:40:14;2.60;99.90
18950;DHT22;9608;49.288;8.130;2023-03-04T02:42:43;2.50;99.90
18950;DHT22;9608;49.288;8.130;2023-03-04T02:48:11;2.50;99.90
18950;DHT22;9608;49.288;8.130;2023-03-04T02:50:40;2.50;99.90
18950;DHT22;9608;49.288;8.130;2023-03-04T02:53:08;2.50;99.90
18950;DHT22;9608;49.288;8.130;2023-03-04T02:55:34;2.40;99.90
18950;DHT22;9608;49.288;8.130;2023-03-04T02:58:01;2.30;99.90
18950;DHT22;9608;49.288;8.130;2023-03-04T03:00:28;2.30;99.90
18950;DHT22;9608;49.288;8.130;2023-03-04T03:02:55;2.20;99.90
18950;DHT22;9608;49.288;8.130;2023-03-04T03:05:25;2.10;99.90
18950;DHT22;9608;49.288;8.130;2023-03-04T03:07:52;2.10;99.90
18950;DHT22;9608;49.288;8.130;2023-03-04T03:10:19;2.10;99.90
18950;DHT22;9608;49.288;8.130;2023-03-04T03:12:46;2.10;99.90
18950;DHT22;9608;49.288;8.130;2023-03-04T03:15:13;2.00;99.90
18950;DHT22;9608;49.288;8.130;2023-03-04T03:17:40;2.00;99.90
18950;DHT22;9608;49.288;8.130;2023-03-04T03:20:09;2.10;99.90
18950;DHT22;9608;49.288;8.130;2023-03-04T03:22:38;2.00;99.90
18950;DHT22;9608;49.288;8.130;2023-03-04T03:25:06;2.00;99.90
18950;DHT22;9608;49.288;8.130;2023-03-04T03:27:33;2.00;99.90
18950;DHT22;9608;49.288;8.130;2023-03-04T03:30:00;2.00;99.90
18950;DHT22;9608;49.288;8.130;2023-03-04T03:32:27;2.00;99.90
18950;DHT22;9608;49.288;8.130;2023-03-04T03:34:54;1.90;99.90
18950;DHT22;9608;49.288;8.130;2023-03-04T03:37:21;1.90;99.90
18950;DHT22;9608;49.288;8.130;2023-03-04T03:39:49;1.90;99.90
18950;DHT22;9608;49.288;8.130;2023-03-04T03:42:15;1.90;99.90
18950;DHT22;9608;49.288;8.130;2023-03-04T03:44:42;1.90;99.90
18950;DHT22;9608;49.288;8.130;2023-03-04T03:47:09;1.90;99.90
18950;DHT22;9608;49.288;8.130;2023-03-04T03:49:35;1.90;99.90
18950;DHT22;9608;49.288;8.130;2023-03-04T03:52:02;1.90;99.90
18950;DHT22;9608;49.288;8.130;2023-03-04T03:54:29;1.90;99.90
18950;DHT22;9608;49.288;8.130;2023-03-04T03:56:57;1.90;99.90
18950;DHT22;9608;49.288;8.130;2023-03-04T03:59:24;1.90;99.90
18950;DHT22;9608;49.288;8.130;2023-03-04T04:01:51;1.90;99.90
18950;DHT22;9608;49.288;8.130;2023-03-04T04:04:17;1.90;99.90
18950;DHT22;9608;49.288;8.130;2023-03-04T04:06:44;1.80;99.90
18950;DHT22;9608;49.288;8.130;2023-03-04T04:09:11;1.80;99.90
18950;DHT22;9608;49.288;8.130;2023-03-04T04:11:37;1.80;99.90
18950;DHT22;9608;49.288;8.130;2023-03-04T04:14:05;1.90;99.90
18950;DHT22;9608;49.288;8.130;2023-03-04T04:16:32;1.80;99.90
18950;DHT22;9608;49.288;8.130;2023-03-04T04:18:59;1.80;99.90
18950;DHT22;9608;49.288;8.130;2023-03-04T04:21:25;1.70;99.90
18950;DHT22;9608;49.288;8.130;2023-03-04T04:23:52;1.70;99.90
18950;DHT22;9608;49.288;8.130;2023-03-04T04:26:19;1.70;99.90
18950;DHT22;9608;49.288;8.130;2023-03-04T04:28:46;1.70;99.90
18950;DHT22;9608;49.288;8.130;2023-03-04T04:31:14;1.70;99.90
18950;DHT22;9608;49.288;8.130;2023-03-04T04:33:40;1.80;99.90
18950;DHT22;9608;49.288;8.130;2023-03-04T04:36:10;1.90;99.90
18950;DHT22;9608;49.288;8.130;2023-03-04T04:38:38;1.90;99.90
18950;DHT22;9608;49.288;8.130;2023-03-04T04:41:05;1.90;99.90
18950;DHT22;9608;49.288;8.130;2023-03-04T04:43:39;1.90;99.90
18950;DHT22;9608;49.288;8.130;2023-03-04T04:46:07;1.90;99.90
18950;DHT22;9608;49.288;8.130;2023-03-04T04:48:35;1.90;99.90
18950;DHT22;9608;49.288;8.130;2023-03-04T04:51:02;1.90;99.90
18950;DHT22;9608;49.288;8.130;2023-03-04T04:53:29;1.90;99.90
18950;DHT22;9608;49.288;8.130;2023-03-04T04:55:55;1.90;99.90
18950;DHT22;9608;49.288;8.130;2023-03-04T04:58:22;1.90;99.90
18950;DHT22;9608;49.288;8.130;2023-03-04T05:00:49;1.90;99.90
18950;DHT22;9608;49.288;8.130;2023-03-04T05:03:16;1.80;99.90
18950;DHT22;9608;49.288;8.130;2023-03-04T05:05:44;1.80;99.90
18950;DHT22;9608;49.288;8.130;2023-03-04T05:08:11;1.80;99.90
18950;DHT22;9608;49.288;8.130;2023-03-04T05:10:37;1.70;99.90
18950;DHT22;9608;49.288;8.130;2023-03-04T05:13:04;1.70;99.90
18950;DHT22;9608;49.288;8.130;2023-03-04T05:15:31;1.70;99.90
18950;DHT22;9608;49.288;8.130;2023-03-04T05:17:57;1.70;99.90
18950;DHT22;9608;49.288;8.130;2023-03-04T05:20:24;1.80;99.90
18950;DHT22;9608;49.288;8.130;2023-03-04T05:22:52;1.70;99.90
18950;DHT22;9608;49.288;8.130;2023-03-04T05:25:19;1.60;99.90
18950;DHT22;9608;49.288;8.130;2023-03-04T05:27:46;1.60;99.90
18950;DHT22;9608;49.288;8.130;2023-03-04T05:30:13;1.60;99.90
18950;DHT22;9608;49.288;8.130;2023-03-04T05:32:40;1.60;99.90
18950;DHT22;9608;49.288;8.130;2023-03-04T05:35:07;1.60;99.90
18950;DHT22;9608;49.288;8.130;2023-03-04T05:37:34;1.60;99.90
18950;DHT22;9608;49.288;8.130;2023-03-04T05:40:02;1.60;99.90
18950;DHT22;9608;49.288;8.130;2023-03-04T05:42:30;1.60;99.90
18950;DHT22;9608;49.288;8.130;2023-03-04T05:44:57;1.60;99.90
18950;DHT22;9608;49.288;8.130;2023-03-04T05:47:23;1.50;99.90
18950;DHT22;9608;49.288;8.130;2023-03-04T05:49:50;1.40;99.90
18950;DHT22;9608;49.288;8.130;2023-03-04T05:52:17;1.40;99.90
18950;DHT22;9608;49.288;8.130;2023-03-04T05:54:43;1.30;99.90
18950;DHT22;9608;49.288;8.130;2023-03-04T05:57:11;1.20;99.90
18950;DHT22;9608;49.288;8.130;2023-03-04T05:59:38;1.20;99.90
18950;DHT22;9608;49.288;8.130;2023-03-04T06:02:05;1.20;99.90
18950;DHT22;9608;49.288;8.130;2023-03-04T06:04:31;1.20;99.90
18950;DHT22;9608;49.288;8.130;2023-03-04T06:06:58;1.20;99.90
18950;DHT22;9608;49.288;8.130;2023-03-04T06:09:27;1.20;99.90
18950;DHT22;9608;49.288;8.130;2023-03-04T06:11:54;1.20;99.90
18950;DHT22;9608;49.288;8.130;2023-03-04T06:14:22;1.20;99.90
18950;DHT22;9608;49.288;8.130;2023-03-04T06:16:49;1.20;99.90
18950;DHT22;9608;49.288;8.130;2023-03-04T06:19:16;1.30;99.90
18950;DHT22;9608;49.288;8.130;2023-03-04T06:21:42;1.20;99.90
18950;DHT22;9608;49.288;8.130;2023-03-04T06:24:09;1.20;99.90
18950;DHT22;9608;49.288;8.130;2023-03-04T06:26:36;1.30;99.90
18950;DHT22;9608;49.288;8.130;2023-03-04T06:29:03;1.30;99.90
18950;DHT22;9608;49.288;8.130;2023-03-04T06:31:31;1.40;99.90
18950;DHT22;9608;49.288;8.130;2023-03-04T06:33:58;1.40;99.90
18950;DHT22;9608;49.288;8.130;2023-03-04T06:36:24;1.40;99.90
18950;DHT22;9608;49.288;8.130;2023-03-04T06:38:51;1.50;99.90
18950;DHT22;9608;49.288;8.130;2023-03-04T06:41:18;1.50;99.90
18950;DHT22;9608;49.288;8.130;2023-03-04T06:43:45;1.60;99.90
18950;DHT22;9608;49.288;8.130;2023-03-04T06:46:11;1.60;99.90
18950;DHT22;9608;49.288;8.130;2023-03-04T06:48:39;1.70;99.90
18950;DHT22;9608;49.288;8.130;2023-03-04T06:51:07;1.70;99.90
18950;DHT22;9608;49.288;8.130;2023-03-04T06:53:34;1.90;99.90
18950;DHT22;9608;49.288;8.130;2023-03-04T06:56:01;2.00;99.90
18950;DHT22;9608;49.288;8.130;2023-03-04T06:58:28;2.00;99.90
18950;DHT22;9608;49.288;8.130;2023-03-04T07:00:55;2.10;99.90
18950;DHT22;9608;49.288;8.130;2023-03-04T07:03:21;2.20;99.90
18950;DHT22;9608;49.288;8.130;2023-03-04T07:05:50;2.20;99.90
18950;DHT22;9608;49.288;8.130;2023-03-04T07:08:16;2.30;99.90
18950;DHT22;9608;49.288;8.130;2023-03-04T07:10:43;2.30;99.90
18950;DHT22;9608;49.288;8.130;2023-03-04T07:13:10;2.40;99.90
18950;DHT22;9608;49.288;8.130;2023-03-04T07:15:37;2.60;99.90
18950;DHT22;9608;49.288;8.130;2023-03-04T07:18:04;2.70;99.90
18950;DHT22;9608;49.288;8.130;2023-03-04T07:20:30;2.80;99.90
18950;DHT22;9608;49.288;8.130;2023-03-04T07:22:59;2.80;99.90
18950;DHT22;9608;49.288;8.130;2023-03-04T07:25:25;2.90;99.90
18950;DHT22;9608;49.288;8.130;2023-03-04T07:27:52;3.00;99.90
18950;DHT22;9608;49.288;8.130;2023-03-04T07:30:19;3.00;99.90
18950;DHT22;9608;49.288;8.130;2023-03-04T07:32:46;3.20;99.90
18950;DHT22;9608;49.288;8.130;2023-03-04T07:35:12;3.30;99.90
18950;DHT22;9608;49.288;8.130;2023-03-04T07:37:42;3.30;99.90
18950;DHT22;9608;49.288;8.130;2023-03-04T07:40:11;3.40;99.90
18950;DHT22;9608;49.288;8.130;2023-03-04T07:42:38;3.40;99.90
18950;DHT22;9608;49.288;8.130;2023-03-04T07:45:05;3.50;99.90
18950;DHT22;9608;49.288;8.130;2023-03-04T07:47:33;3.50;99.90
18950;DHT22;9608;49.288;8.130;2023-03-04T07:49:59;3.60;99.90
18950;DHT22;9608;49.288;8.130;2023-03-04T07:52:26;3.70;99.90
18950;DHT22;9608;49.288;8.130;2023-03-04T07:54:53;3.70;99.90
18950;DHT22;9608;49.288;8.130;2023-03-04T07:57:21;3.70;99.90
18950;DHT22;9608;49.288;8.130;2023-03-04T07:59:47;3.70;99.90
18950;DHT22;9608;49.288;8.130;2023-03-04T08:02:14;3.80;99.90
18950;DHT22;9608;49.288;8.130;2023-03-04T08:04:41;3.70;99.90
18950;DHT22;9608;49.288;8.130;2023-03-04T08:07:08;3.80;99.90
18950;DHT22;9608;49.288;8.130;2023-03-04T08:09:34;3.80;99.90
18950;DHT22;9608;49.288;8.130;2023-03-04T08:12:01;3.90;99.90
18950;DHT22;9608;49.288;8.130;2023-03-04T08:14:29;3.90;99.90
18950;DHT22;9608;49.288;8.130;2023-03-04T08:16:56;3.90;99.90
18950;DHT22;9608;49.288;8.130;2023-03-04T08:19:23;4.00;99.90
18950;DHT22;9608;49.288;8.130;2023-03-04T08:21:49;4.00;99.90
18950;DHT22;9608;49.288;8.130;2023-03-04T08:24:16;4.10;99.90
18950;DHT22;9608;49.288;8.130;2023-03-04T08:26:45;4.10;99.90
18950;DHT22;9608;49.288;8.130;2023-03-04T08:29:15;4.20;99.90
18950;DHT22;9608;49.288;8.130;2023-03-04T08:31:43;4.30;99.90
18950;DHT22;9608;49.288;8.130;2023-03-04T08:34:11;4.30;99.90
18950;DHT22;9608;49.288;8.130;2023-03-04T08:36:39;4.30;99.90
18950;DHT22;9608;49.288;8.130;2023-03-04T08:39:07;4.40;99.90
18950;DHT22;9608;49.288;8.130;2023-03-04T08:41:34;4.50;99.90
18950;DHT22;9608;49.288;8.130;2023-03-04T08:44:01;4.60;99.90
18950;DHT22;9608;49.288;8.130;2023-03-04T08:46:29;4.70;99.90
18950;DHT22;9608;49.288;8.130;2023-03-04T08:48:57;4.80;99.90
18950;DHT22;9608;49.288;8.130;2023-03-04T08:51:24;4.80;99.90
18950;DHT22;9608;49.288;8.130;2023-03-04T08:53:51;4.80;99.90
18950;DHT22;9608;49.288;8.130;2023-03-04T08:56:18;4.70;99.90
18950;DHT22;9608;49.288;8.130;2023-03-04T08:58:44;4.70;99.90
18950;DHT22;9608;49.288;8.130;2023-03-04T09:01:13;4.70;99.90
18950;DHT22;9608;49.288;8.130;2023-03-04T09:03:41;4.70;99.90
18950;DHT22;9608;49.288;8.130;2023-03-04T09:06:12;4.70;99.90
18950;DHT22;9608;49.288;8.130;2023-03-04T09:08:39;4.70;99.90
18950;DHT22;9608;49.288;8.130;2023-03-04T09:11:06;4.80;99.90
18950;DHT22;9608;49.288;8.130;2023-03-04T09:13:33;4.80;99.90
18950;DHT22;9608;49.288;8.130;2023-03-04T09:16:00;4.70;99.90
18950;DHT22;9608;49.288;8.130;2023-03-04T09:18:27;4.80;99.90
18950;DHT22;9608;49.288;8.130;2023-03-04T09:20:54;4.90;99.90
18950;DHT22;9608;49.288;8.130;2023-03-04T09:23:22;4.90;99.90
18950;DHT22;9608;49.288;8.130;2023-03-04T09:25:48;5.00;99.90
18950;DHT22;9608;49.288;8.130;2023-03-04T09:28:16;5.00;99.90
18950;DHT22;9608;49.288;8.130;2023-03-04T09:30:43;4.90;99.90
18950;DHT22;9608;49.288;8.130;2023-03-04T09:33:10;4.80;99.90
18950;DHT22;9608;49.288;8.130;2023-03-04T09:35:37;4.80;99.90
18950;DHT22;9608;49.288;8.130;2023-03-04T09:38:04;4.80;99.90
18950;DHT22;9608;49.288;8.130;2023-03-04T09:40:38;4.80;99.90
18950;DHT22;9608;49.288;8.130;2023-03-04T09:43:11;4.90;99.90
18950;DHT22;9608;49.288;8.130;2023-03-04T09:45:42;4.80;99.90
18950;DHT22;9608;49.288;8.130;2023-03-04T09:48:12;4.90;99.90
18950;DHT22;9608;49.288;8.130;2023-03-04T09:50:49;4.80;99.90
18950;DHT22;9608;49.288;8.130;2023-03-04T09:53:22;4.90;99.90
18950;DHT22;9608;49.288;8.130;2023-03-04T09:55:52;4.90;99.90
18950;DHT22;9608;49.288;8.130;2023-03-04T09:58:31;4.90;99.90
18950;DHT22;9608;49.288;8.130;2023-03-04T10:01:06;4.90;99.90
18950;DHT22;9608;49.288;8.130;2023-03-04T10:03:41;4.70;99.90
18950;DHT22;9608;49.288;8.130;2023-03-04T10:06:15;4.60;99.90
18950;DHT22;9608;49.288;8.130;2023-03-04T10:08:47;4.70;99.90
18950;DHT22;9608;49.288;8.130;2023-03-04T10:11:22;4.80;99.90
18950;DHT22;9608;49.288;8.130;2023-03-04T10:13:55;5.10;99.90
18950;DHT22;9608;49.288;8.130;2023-03-04T10:16:26;5.00;99.90
18950;DHT22;9608;49.288;8.130;2023-03-04T10:18:57;5.10;99.90
18950;DHT22;9608;49.288;8.130;2023-03-04T10:21:29;5.10;99.90
18950;DHT22;9608;49.288;8.130;2023-03-04T10:23:59;5.10;99.90
18950;DHT22;9608;49.288;8.130;2023-03-04T10:26:30;5.10;99.90
18950;DHT22;9608;49.288;8.130;2023-03-04T10:28:58;5.10;99.90
18950;DHT22;9608;49.288;8.130;2023-03-04T10:31:32;5.00;99.90
18950;DHT22;9608;49.288;8.130;2023-03-04T10:34:01;5.10;99.90
18950;DHT22;9608;49.288;8.130;2023-03-04T10:36:38;5.10;99.90
18950;DHT22;9608;49.288;8.130;2023-03-04T10:39:08;5.00;99.90
18950;DHT22;9608;49.288;8.130;2023-03-04T10:41:41;5.00;99.90
18950;DHT22;9608;49.288;8.130;2023-03-04T10:44:15;5.10;99.90
18950;DHT22;9608;49.288;8.130;2023-03-04T10:46:44;5.10;99.90
18950;DHT22;9608;49.288;8.130;2023-03-04T10:49:12;5.20;99.90
18950;DHT22;9608;49.288;8.130;2023-03-04T10:51:44;5.00;99.90
18950;DHT22;9608;49.288;8.130;2023-03-04T10:54:24;5.20;99.90
18950;DHT22;9608;49.288;8.130;2023-03-04T10:56:58;5.30;99.90
18950;DHT22;9608;49.288;8.130;2023-03-04T10:59:47;5.30;99.90
18950;DHT22;9608;49.288;8.130;2023-03-04T11:02:22;5.40;99.90
18950;DHT22;9608;49.288;8.130;2023-03-04T11:07:39;5.40;99.90
18950;DHT22;9608;49.288;8.130;2023-03-04T11:10:13;5.40;99.90
18950;DHT22;9608;49.288;8.130;2023-03-04T11:12:47;5.40;99.90
18950;DHT22;9608;49.288;8.130;2023-03-04T11:15:20;5.40;99.90
18950;DHT22;9608;49.288;8.130;2023-03-04T11:17:53;5.40;99.90
18950;DHT22;9608;49.288;8.130;2023-03-04T11:20:28;5.40;99.90
18950;DHT22;9608;49.288;8.130;2023-03-04T11:22:58;5.50;99.90
18950;DHT22;9608;49.288;8.130;2023-03-04T11:25:30;5.60;99.90
18950;DHT22;9608;49.288;8.130;2023-03-04T11:28:02;5.70;99.90
18950;DHT22;9608;49.288;8.130;2023-03-04T11:30:40;5.60;99.90
18950;DHT22;9608;49.288;8.130;2023-03-04T11:33:19;5.70;99.90
18950;DHT22;9608;49.288;8.130;2023-03-04T11:35:56;5.70;99.90
18950;DHT22;9608;49.288;8.130;2023-03-04T11:38:30;5.70;99.90
18950;DHT22;9608;49.288;8.130;2023-03-04T11:41:00;5.70;99.90
18950;DHT22;9608;49.288;8.130;2023-03-04T11:43:34;5.60;99.90
18950;DHT22;9608;49.288;8.130;2023-03-04T11:48:57;5.90;99.90
18950;DHT22;9608;49.288;8.130;2023-03-04T11:51:31;5.90;99.90
18950;DHT22;9608;49.288;8.130;2023-03-04T11:54:16;5.70;99.90
18950;DHT22;9608;49.288;8.130;2023-03-04T11:56:48;5.60;99.90
18950;DHT22;9608;49.288;8.130;2023-03-04T11:59:38;5.80;99.90
18950;DHT22;9608;49.288;8.130;2023-03-04T12:02:15;6.10;99.90
18950;DHT22;9608;49.288;8.130;2023-03-04T12:05:16;6.20;99.90
18950;DHT22;9608;49.288;8.130;2023-03-04T12:08:07;6.40;99.90
18950;DHT22;9608;49.288;8.130;2023-03-04T12:10:46;6.50;99.90
18950;DHT22;9608;49.288;8.130;2023-03-04T12:13:51;6.60;99.90
18950;DHT22;9608;49.288;8.130;2023-03-04T12:16:39;6.60;99.90
18950;DHT22;9608;49.288;8.130;2023-03-04T12:19:20;6.60;99.90
18950;DHT22;9608;49.288;8.130;2023-03-04T12:22:14;6.70;99.90
18950;DHT22;9608;49.288;8.130;2023-03-04T12:25:12;6.80;99.90
18950;DHT22;9608;49.288;8.130;2023-03-04T12:27:46;6.80;99.90
18950;DHT22;9608;49.288;8.130;2023-03-04T12:30:24;6.90;99.90
18950;DHT22;9608;49.288;8.130;2023-03-04T12:33:03;7.20;99.90
18950;DHT22;9608;49.288;8.130;2023-03-04T12:35:37;7.30;99.90
18950;DHT22;9608;49.288;8.130;2023-03-04T12:38:22;7.40;99.90
18950;DHT22;9608;49.288;8.130;2023-03-04T12:40:56;7.20;99.90
18950;DHT22;9608;49.288;8.130;2023-03-04T12:43:46;7.00;99.90
18950;DHT22;9608;49.288;8.130;2023-03-04T12:46:30;7.00;99.90
18950;DHT22;9608;49.288;8.130;2023-03-04T12:49:19;6.90;99.90
18950;DHT22;9608;49.288;8.130;2023-03-04T12:51:51;7.00;99.90
18950;DHT22;9608;49.288;8.130;2023-03-04T12:54:23;6.90;99.90
18950;DHT22;9608;49.288;8.130;2023-03-04T12:56:53;7.00;99.90
18950;DHT22;9608;49.288;8.130;2023-03-04T12:59:23;7.30;99.90
18950;DHT22;9608;49.288;8.130;2023-03-04T13:01:58;7.40;99.90
18950;DHT22;9608;49.288;8.130;2023-03-04T13:04:32;7.40;99.90
18950;DHT22;9608;49.288;8.130;2023-03-04T13:07:10;7.10;99.90
18950;DHT22;9608;49.288;8.130;2023-03-04T13:09:46;7.10;99.90
18950;DHT22;9608;49.288;8.130;2023-03-04T13:12:15;7.30;99.90
18950;DHT22;9608;49.288;8.130;2023-03-04T13:15:17;7.20;99.90
18950;DHT22;9608;49.288;8.130;2023-03-04T13:17:45;7.20;99.90
18950;DHT22;9608;49.288;8.130;2023-03-04T13:20:23;7.40;99.90
18950;DHT22;9608;49.288;8.130;2023-03-04T13:22:53;7.40;99.90
18950;DHT22;9608;49.288;8.130;2023-03-04T13:25:30;7.40;99.90
18950;DHT22;9608;49.288;8.130;2023-03-04T13:28:17;7.30;99.90
18950;DHT22;9608;49.288;8.130;2023-03-04T13:31:10;7.10;99.90
18950;DHT22;9608;49.288;8.130;2023-03-04T13:34:04;7.00;99.90
18950;DHT22;9608;49.288;8.130;2023-03-04T13:36:52;6.90;99.90
18950;DHT22;9608;49.288;8.130;2023-03-04T13:39:31;6.80;99.90
18950;DHT22;9608;49.288;8.130;2023-03-04T13:42:02;6.70;99.90
18950;DHT22;9608;49.288;8.130;2023-03-04T13:47:42;6.60;99.90
18950;DHT22;9608;49.288;8.130;2023-03-04T13:50:27;6.60;99.90
18950;DHT22;9608;49.288;8.130;2023-03-04T13:53:00;6.60;99.90
18950;DHT22;9608;49.288;8.130;2023-03-04T13:55:35;6.60;99.90
18950;DHT22;9608;49.288;8.130;2023-03-04T13:58:15;6.50;99.90
18950;DHT22;9608;49.288;8.130;2023-03-04T14:00:48;6.50;99.90
18950;DHT22;9608;49.288;8.130;2023-03-04T14:03:21;6.50;99.90
18950;DHT22;9608;49.288;8.130;2023-03-04T14:06:08;6.60;99.90
18950;DHT22;9608;49.288;8.130;2023-03-04T14:08:36;6.50;99.90
18950;DHT22;9608;49.288;8.130;2023-03-04T14:11:03;6.40;99.90
18950;DHT22;9608;49.288;8.130;2023-03-04T14:13:30;6.40;99.90
18950;DHT22;9608;49.288;8.130;2023-03-04T14:15:58;6.40;99.90
18950;DHT22;9608;49.288;8.130;2023-03-04T14:18:25;6.30;99.90
18950;DHT22;9608;49.288;8.130;2023-03-04T14:20:54;6.40;99.90
18950;DHT22;9608;49.288;8.130;2023-03-04T14:23:26;6.20;99.90
18950;DHT22;9608;49.288;8.130;2023-03-04T14:26:09;6.30;99.90
18950;DHT22;9608;49.288;8.130;2023-03-04T14:28:45;6.20;99.90
18950;DHT22;9608;49.288;8.130;2023-03-04T14:31:18;6.10;99.90
18950;DHT22;9608;49.288;8.130;2023-03-04T14:33:47;6.10;99.90
18950;DHT22;9608;49.288;8.130;2023-03-04T14:36:17;6.10;99.90
18950;DHT22;9608;49.288;8.130;2023-03-04T14:38:50;6.20;99.90
18950;DHT22;9608;49.288;8.130;2023-03-04T14:41:22;6.10;99.90
18950;DHT22;9608;49.288;8.130;2023-03-04T14:43:55;6.00;99.90
18950;DHT22;9608;49.288;8.130;2023-03-04T14:46:29;6.10;99.90
18950;DHT22;9608;49.288;8.130;2023-03-04T14:48:57;6.00;99.90
18950;DHT22;9608;49.288;8.130;2023-03-04T14:51:36;6.00;99.90
18950;DHT22;9608;49.288;8.130;2023-03-04T14:54:03;6.00;99.90
18950;DHT22;9608;49.288;8.130;2023-03-04T14:56:34;6.00;99.90
18950;DHT22;9608;49.288;8.130;2023-03-04T14:59:01;6.00;99.90
18950;DHT22;9608;49.288;8.130;2023-03-04T15:01:31;6.00;99.90
18950;DHT22;9608;49.288;8.130;2023-03-04T15:04:01;6.10;99.90
18950;DHT22;9608;49.288;8.130;2023-03-04T15:06:30;6.20;99.90
18950;DHT22;9608;49.288;8.130;2023-03-04T15:09:00;6.20;99.90
18950;DHT22;9608;49.288;8.130;2023-03-04T15:11:30;6.30;99.90
18950;DHT22;9608;49.288;8.130;2023-03-04T15:13:59;6.30;99.90
18950;DHT22;9608;49.288;8.130;2023-03-04T15:16:28;6.40;99.90
18950;DHT22;9608;49.288;8.130;2023-03-04T15:18:57;6.50;99.90
18950;DHT22;9608;49.288;8.130;2023-03-04T15:21:34;6.60;99.90
18950;DHT22;9608;49.288;8.130;2023-03-04T15:24:02;6.70;99.90
18950;DHT22;9608;49.288;8.130;2023-03-04T15:26:29;6.70;99.90
18950;DHT22;9608;49.288;8.130;2023-03-04T15:28:58;6.60;99.90
18950;DHT22;9608;49.288;8.130;2023-03-04T15:31:26;6.60;99.90
18950;DHT22;9608;49.288;8.130;2023-03-04T15:33:54;6.60;99.90
18950;DHT22;9608;49.288;8.130;2023-03-04T15:36:22;6.60;99.90
18950;DHT22;9608;49.288;8.130;2023-03-04T15:38:51;6.60;99.90
18950;DHT22;9608;49.288;8.130;2023-03-04T15:41:21;6.60;99.90
18950;DHT22;9608;49.288;8.130;2023-03-04T15:43:48;6.60;99.90
18950;DHT22;9608;49.288;8.130;2023-03-04T15:46:16;6.50;99.90
18950;DHT22;9608;49.288;8.130;2023-03-04T15:48:44;6.50;99.90
18950;DHT22;9608;49.288;8.130;2023-03-04T15:51:13;6.50;99.90
18950;DHT22;9608;49.288;8.130;2023-03-04T15:53:42;6.50;99.90
18950;DHT22;9608;49.288;8.130;2023-03-04T15:56:12;6.50;99.90
18950;DHT22;9608;49.288;8.130;2023-03-04T15:58:40;6.40;99.90
18950;DHT22;9608;49.288;8.130;2023-03-04T16:01:08;6.40;99.90
18950;DHT22;9608;49.288;8.130;2023-03-04T16:03:37;6.30;99.90
18950;DHT22;9608;49.288;8.130;2023-03-04T16:06:08;6.30;99.90
18950;DHT22;9608;49.288;8.130;2023-03-04T16:08:35;6.20;99.90
18950;DHT22;9608;49.288;8.130;2023-03-04T16:11:02;6.20;99.90
18950;DHT22;9608;49.288;8.130;2023-03-04T16:13:29;6.20;99.90
18950;DHT22;9608;49.288;8.130;2023-03-04T16:15:55;6.20;99.90
18950;DHT22;9608;49.288;8.130;2023-03-04T16:18:22;6.10;99.90
18950;DHT22;9608;49.288;8.130;2023-03-04T16:20:50;6.10;99.90
18950;DHT22;9608;49.288;8.130;2023-03-04T16:23:20;6.10;99.90
18950;DHT22;9608;49.288;8.130;2023-03-04T16:25:48;6.10;99.90
18950;DHT22;9608;49.288;8.130;2023-03-04T16:28:15;6.10;99.90
18950;DHT22;9608;49.288;8.130;2023-03-04T16:30:42;6.00;99.90
18950;DHT22;9608;49.288;8.130;2023-03-04T16:33:09;6.00;99.90